Time;durP1;ratioP1;P1;durP2;ratioP2;P2;SDS_P1;SDS_P2;PMS_P1;PMS_P2;Temp;Humidity;BMP_temperature;BMP_pressure;BME280_temperature;BME280_humidity;BME280_pressure;Samples;Min_cycle;Max_cycle;Signal;HPM_P1;HPM_P2
2022/05/30 00:00:38;;;;;;;6.65;1.65;;;;;;;9.19;95.77;101337.75;4968842;28;20034;-64
2022/05/30 00:03:04;;;;;;;5.30;1.42;;;;;;;9.17;95.36;101326.44;4969208;28;20027;-64
2022/05/30 00:05:30;;;;;;;5.47;1.40;;;;;;;9.17;94.88;101331.59;4969136;28;20395;-64
2022/05/30 00:07:55;;;;;;;4.20;1.63;;;;;;;9.16;95.53;101327.22;4968766;28;20113;-64
2022/05/30 00:10:21;;;;;;;5.30;1.67;;;;;;;9.14;95.73;101327.16;4968585;28;20161;-64
2022/05/30 00:12:46;;;;;;;7.88;2.30;;;;;;;9.14;96.42;101319.41;4969057;28;20392;-65
2022/05/30 00:15:16;;;;;;;5.80;1.85;;;;;;;9.12;96.54;101324.53;4969041;28;20019;-64
2022/05/30 00:17:41;;;;;;;9.50;2.30;;;;;;;9.12;95.93;101329.69;4968699;28;20504;-65
2022/05/30 00:20:08;;;;;;;8.30;2.20;;;;;;;9.11;96.23;101322.75;4968863;28;20038;-65
2022/05/30 00:22:33;;;;;;;10.13;1.80;;;;;;;9.12;96.84;101319.34;4969104;28;20113;-65
2022/05/30 00:24:59;;;;;;;7.45;2.13;;;;;;;9.11;96.88;101322.75;4968475;28;20591;-64
2022/05/30 00:27:24;;;;;;;7.88;1.90;;;;;;;9.10;96.61;101320.09;4968689;28;20022;-65
2022/05/30 00:29:49;;;;;;;7.75;1.95;;;;;;;9.08;97.01;101327.81;4968594;28;20484;-65
2022/05/30 00:32:15;;;;;;;5.18;2.58;;;;;;;9.03;97.35;101325.81;4968715;28;20484;-65
2022/05/30 00:34:41;;;;;;;4.25;1.85;;;;;;;8.98;98.74;101325.56;4968719;28;20039;-64
2022/05/30 00:37:06;;;;;;;4.72;1.63;;;;;;;8.95;98.94;101320.28;4968634;28;20438;-64
2022/05/30 00:39:32;;;;;;;5.93;2.00;;;;;;;8.94;99.56;101319.38;4968392;28;20034;-64
2022/05/30 00:42:16;;;;;;;4.65;2.20;;;;;;;8.93;99.56;101314.13;4968040;28;20029;-64
2022/05/30 00:44:44;;;;;;;4.47;1.80;;;;;;;8.87;99.21;101320.81;4968413;28;20022;-64
2022/05/30 00:47:10;;;;;;;8.35;1.90;;;;;;;8.82;99.77;101314.53;4967761;28;20027;-65
2022/05/30 00:49:38;;;;;;;7.85;2.58;;;;;;;8.77;99.77;101316.03;4968226;28;20109;-64
2022/05/30 00:52:07;;;;;;;10.82;2.85;;;;;;;8.73;100.00;101308.94;4968495;28;20043;-65
2022/05/30 00:54:54;;;;;;;7.97;2.20;;;;;;;8.71;100.00;101311.44;4968399;28;20624;-65
2022/05/30 00:57:25;;;;;;;9.30;2.05;;;;;;;8.68;100.00;101306.13;4968599;28;20505;-64
2022/05/30 00:59:55;;;;;;;8.10;2.20;;;;;;;8.68;100.00;101305.25;4967434;28;20031;-65
2022/05/30 01:02:23;;;;;;;7.07;2.17;;;;;;;8.68;100.00;101305.25;4968305;28;20026;-65
2022/05/30 01:07:34;;;;;;;9.70;2.35;;;;;;;8.67;100.00;101301.75;4968447;28;20042;-65
2022/05/30 01:10:01;;;;;;;8.52;3.05;;;;;;;8.65;100.00;101304.28;4968231;28;20027;-64
2022/05/30 01:12:37;;;;;;;6.07;2.00;;;;;;;8.63;100.00;101305.91;4967051;28;20054;-65
2022/05/30 01:15:03;;;;;;;6.40;2.38;;;;;;;8.57;100.00;101303.03;4968179;28;20072;-65
2022/05/30 01:17:28;;;;;;;6.63;2.40;;;;;;;8.52;100.00;101300.22;4967899;28;20400;-65
2022/05/30 01:20:15;;;;;;;8.60;2.47;;;;;;;8.49;100.00;101294.03;4967847;28;20050;-64
2022/05/30 01:22:58;;;;;;;5.50;2.10;;;;;;;8.47;100.00;101300.81;4967806;28;20019;-64
2022/05/30 01:26:11;;;;;;;7.72;2.33;;;;;;;8.44;100.00;101295.50;4967901;28;20042;-65
2022/05/30 01:28:46;;;;;;;9.70;2.60;;;;;;;8.41;100.00;101307.44;4968150;28;20348;-65
2022/05/30 01:31:13;;;;;;;9.63;2.55;;;;;;;8.40;100.00;101300.50;4967727;28;20031;-64
2022/05/30 01:33:38;;;;;;;6.30;2.03;;;;;;;8.43;100.00;101294.59;4967548;28;20030;-65
2022/05/30 01:36:04;;;;;;;8.38;2.88;;;;;;;8.40;100.00;101295.31;4967899;28;20504;-65
2022/05/30 01:38:29;;;;;;;6.50;2.17;;;;;;;8.39;100.00;101292.69;4967245;28;20037;-65
2022/05/30 01:40:56;;;;;;;6.03;2.40;;;;;;;8.35;100.00;101294.22;4967756;28;20050;-65
2022/05/30 01:43:22;;;;;;;7.65;2.78;;;;;;;8.34;100.00;101292.47;4967782;28;20030;-64
2022/05/30 01:45:48;;;;;;;5.40;2.28;;;;;;;8.31;100.00;101287.13;4967834;28;20043;-65
2022/05/30 01:48:13;;;;;;;5.55;2.20;;;;;;;8.31;100.00;101287.13;4967375;28;20031;-65
2022/05/30 01:50:39;;;;;;;8.25;2.15;;;;;;;8.29;100.00;101281.03;4967445;28;20077;-65
2022/05/30 01:53:04;;;;;;;5.15;2.15;;;;;;;8.27;100.00;101287.81;4967743;28;20025;-64
2022/05/30 01:55:29;;;;;;;13.07;3.03;;;;;;;8.23;100.00;101281.63;4967877;28;20027;-64
2022/05/30 01:57:55;;;;;;;7.90;2.40;;;;;;;8.23;100.00;101285.88;4966804;28;20680;-64
2022/05/30 02:00:20;;;;;;;7.35;2.30;;;;;;;8.20;100.00;101285.75;4967206;28;20023;-64
2022/05/30 02:02:45;;;;;;;6.70;2.60;;;;;;;8.17;100.00;101281.28;4967257;28;20097;-64
2022/05/30 02:05:12;;;;;;;7.20;2.75;;;;;;;8.13;100.00;101279.41;4967103;28;20394;-65
2022/05/30 02:07:37;;;;;;;7.43;2.70;;;;;;;8.13;100.00;101279.41;4966924;28;20027;-64
2022/05/30 02:10:04;;;;;;;7.40;3.05;;;;;;;8.11;100.00;101281.88;4967531;28;20029;-64
2022/05/30 02:12:29;;;;;;;7.03;3.67;;;;;;;8.10;100.00;101285.28;4967581;28;20034;-64
2022/05/30 02:14:55;;;;;;;4.55;2.38;;;;;;;8.05;100.00;101282.47;4964786;28;20598;-64
2022/05/30 02:17:20;;;;;;;7.88;2.90;;;;;;;8.01;100.00;101279.66;4966936;28;20015;-64
2022/05/30 02:19:46;;;;;;;6.28;2.30;;;;;;;7.96;100.00;101278.53;4967102;28;20125;-64
2022/05/30 02:22:22;;;;;;;6.22;2.67;;;;;;;7.92;100.00;101280.97;4967911;28;20030;-65
2022/05/30 02:24:50;;;;;;;6.43;2.35;;;;;;;7.89;100.00;101275.66;4971100;28;20050;-64
2022/05/30 02:27:17;;;;;;;8.43;3.13;;;;;;;7.86;100.00;101284.94;4970814;28;20034;-64
2022/05/30 02:29:44;;;;;;;7.40;2.80;;;;;;;7.83;100.00;101290.84;4970868;28;20030;-65
2022/05/30 02:32:09;;;;;;;12.27;2.92;;;;;;;7.80;100.00;101291.59;4970899;28;20022;-64
2022/05/30 02:37:19;;;;;;;6.65;3.08;;;;;;;7.75;100.00;101276.66;4970470;28;20178;-65
2022/05/30 02:39:44;;;;;;;6.68;3.10;;;;;;;7.73;100.00;101278.28;4970176;28;20118;-64
2022/05/30 02:42:10;;;;;;;7.05;3.53;;;;;;;7.72;100.00;101276.53;4971008;28;20157;-64
2022/05/30 02:44:37;;;;;;;12.18;3.30;;;;;;;7.69;100.00;101275.56;4970347;28;20675;-64
2022/05/30 02:47:03;;;;;;;8.10;3.05;;;;;;;7.66;100.00;101272.78;4952585;28;20099;-64
2022/05/30 02:49:29;;;;;;;6.47;2.42;;;;;;;7.65;100.00;101273.63;4970152;28;20035;-64
2022/05/30 02:51:55;;;;;;;6.07;2.63;;;;;;;7.62;100.00;101264.84;4970224;28;20793;-64
2022/05/30 02:54:20;;;;;;;8.35;2.85;;;;;;;7.56;100.00;101266.28;4970573;28;20042;-64
2022/05/30 02:56:53;;;;;;;10.02;3.22;;;;;;;7.51;100.00;101272.91;4970280;28;20459;-64
2022/05/30 02:59:19;;;;;;;9.32;3.05;;;;;;;7.48;100.00;101272.75;4969811;28;20027;-64
2022/05/30 03:01:45;;;;;;;10.80;3.50;;;;;;;7.47;100.00;101270.06;4970210;28;20023;-65
2022/05/30 03:04:11;;;;;;;5.78;2.88;;;;;;;7.46;100.00;101269.22;4970566;28;20030;-65
2022/05/30 03:06:36;;;;;;;9.10;2.88;;;;;;;7.45;100.00;101277.75;4970165;28;20133;-64
2022/05/30 03:09:03;;;;;;;6.03;3.00;;;;;;;7.44;100.00;101276.88;4969868;28;20492;-64
2022/05/30 03:11:28;;;;;;;10.50;3.90;;;;;;;7.43;100.00;101272.50;4969962;28;20282;-64
2022/05/30 03:13:53;;;;;;;9.68;3.78;;;;;;;7.44;100.00;101281.13;4970571;28;20506;-64
2022/05/30 03:16:19;;;;;;;7.65;3.53;;;;;;;7.44;100.00;101281.13;4969474;28;20027;-64
2022/05/30 03:18:45;;;;;;;7.85;3.58;;;;;;;7.41;100.00;101281.84;4968940;28;20459;-64
2022/05/30 03:21:10;;;;;;;10.00;3.63;;;;;;;7.39;100.00;101282.59;4967666;28;20130;-65
2022/05/30 03:23:36;;;;;;;9.80;3.78;;;;;;;7.39;100.00;101282.59;4968825;28;20058;-64
2022/05/30 03:26:02;;;;;;;7.40;3.60;;;;;;;7.38;100.00;101280.81;4968453;28;20091;-64
2022/05/30 03:28:27;;;;;;;9.48;4.75;;;;;;;7.38;100.00;101280.81;4967904;28;20023;-64
2022/05/30 03:30:53;;;;;;;6.95;3.80;;;;;;;7.39;100.00;101283.50;4967883;28;20041;-64
2022/05/30 03:33:18;;;;;;;9.73;4.50;;;;;;;7.38;100.00;101280.81;4967445;28;20089;-64
2022/05/30 03:35:43;;;;;;;8.18;3.80;;;;;;;7.35;100.00;101281.53;4981457;28;20034;-64
2022/05/30 03:38:09;;;;;;;6.32;4.22;;;;;;;7.35;100.00;101280.66;4969262;28;20120;-64
2022/05/30 03:40:38;;;;;;;8.10;4.18;;;;;;;7.32;100.00;101290.00;4970076;28;20118;-64
2022/05/30 03:43:09;;;;;;;8.45;4.25;;;;;;;7.30;100.00;101298.47;4969426;28;20410;-64
2022/05/30 03:45:36;;;;;;;6.55;3.70;;;;;;;7.29;100.00;101301.84;4969862;28;20551;-64
2022/05/30 03:48:02;;;;;;;8.02;4.32;;;;;;;7.27;100.00;101306.00;4969450;28;20027;-64
2022/05/30 03:50:27;;;;;;;10.45;4.18;;;;;;;7.26;100.00;101301.69;4969080;28;20471;-64
2022/05/30 03:52:53;;;;;;;7.35;3.92;;;;;;;7.24;100.00;101301.59;4969122;28;20038;-65
2022/05/30 03:55:21;;;;;;;7.63;4.15;;;;;;;7.25;100.00;101305.06;4968862;28;20438;-65
2022/05/30 03:57:46;;;;;;;7.95;4.63;;;;;;;7.26;100.00;101297.41;4969256;28;20460;-64
2022/05/30 04:00:15;;;;;;;6.80;4.50;;;;;;;7.26;100.00;101300.00;4968547;28;20026;-65
2022/05/30 04:02:41;;;;;;;6.47;4.60;;;;;;;7.28;100.00;101300.06;4969069;28;20019;-64
2022/05/30 04:05:08;;;;;;;8.00;4.38;;;;;;;7.28;100.00;101294.91;4969085;28;20259;-65
2022/05/30 04:07:34;;;;;;;13.63;5.50;;;;;;;7.31;100.00;101301.13;4968852;28;20030;-64
2022/05/30 04:09:59;;;;;;;6.85;4.53;;;;;;;7.32;100.00;101302.03;4968935;28;20015;-64
2022/05/30 04:12:24;;;;;;;10.05;5.35;;;;;;;7.32;100.00;101296.88;4968583;28;20065;-65
2022/05/30 04:14:55;;;;;;;8.00;5.15;;;;;;;7.34;100.00;101297.81;4982975;28;20030;-64
2022/05/30 04:17:20;;;;;;;12.25;6.63;;;;;;;7.37;100.00;101294.50;4969385;28;20019;-64
2022/05/30 04:19:46;;;;;;;10.35;5.75;;;;;;;7.39;100.00;101293.81;4968592;28;20163;-64
2022/05/30 04:22:11;;;;;;;12.75;6.40;;;;;;;7.41;100.00;101287.00;4968065;28;20033;-65
2022/05/30 04:24:36;;;;;;;10.80;6.35;;;;;;;7.43;100.00;101290.56;4968938;28;20027;-64
2022/05/30 04:27:02;;;;;;;11.32;6.88;;;;;;;7.47;100.00;101288.13;4969104;28;20035;-65
2022/05/30 04:29:29;;;;;;;14.13;7.55;;;;;;;7.51;100.00;101295.22;4969323;28;20205;-65
2022/05/30 04:31:54;;;;;;;12.38;7.30;;;;;;;7.55;100.00;101289.44;4969484;28;20022;-64
2022/05/30 04:34:19;;;;;;;12.43;6.72;;;;;;;7.57;100.00;101287.81;4969132;28;20443;-64
2022/05/30 04:36:45;;;;;;;8.68;7.20;;;;;;;7.62;100.00;101294.09;4968581;28;20031;-64
2022/05/30 04:39:10;;;;;;;11.30;7.38;;;;;;;7.68;100.00;101294.41;4969263;28;20035;-65
2022/05/30 04:41:35;;;;;;;14.50;7.72;;;;;;;7.72;100.00;101292.00;4969163;28;20027;-64
2022/05/30 04:44:01;;;;;;;13.93;8.45;;;;;;;7.72;100.00;101297.16;4968868;28;20309;-64
2022/05/30 04:46:26;;;;;;;11.95;7.60;;;;;;;7.73;100.00;101298.91;4968187;28;20386;-64
2022/05/30 04:48:51;;;;;;;10.50;8.07;;;;;;;7.74;100.00;101290.34;4968486;28;20034;-65
2022/05/30 04:51:17;;;;;;;14.13;8.00;;;;;;;7.76;100.00;101299.06;4968215;28;20395;-64
2022/05/30 04:53:42;;;;;;;11.63;7.90;;;;;;;7.76;100.00;101299.97;4968255;28;20022;-64
2022/05/30 04:56:08;;;;;;;10.93;8.02;;;;;;;7.75;100.00;101307.63;4967290;28;20031;-65
2022/05/30 04:58:35;;;;;;;11.73;8.20;;;;;;;7.77;100.00;101308.59;4968277;28;20424;-64
2022/05/30 05:01:06;;;;;;;11.43;7.35;;;;;;;7.74;100.00;101311.91;4967581;28;20110;-64
2022/05/30 05:03:33;;;;;;;9.50;7.57;;;;;;;7.73;100.00;101315.28;4967988;28;20030;-64
2022/05/30 05:06:07;;;;;;;11.85;8.18;;;;;;;7.73;100.00;101317.88;4967749;28;20043;-64
2022/05/30 05:08:56;;;;;;;13.48;7.60;;;;;;;7.74;100.00;101317.06;4967728;28;20439;-65
2022/05/30 05:11:27;;;;;;;12.73;7.35;;;;;;;7.70;100.00;101312.53;4957421;28;20034;-65
2022/05/30 05:13:53;;;;;;;11.18;8.27;;;;;;;7.71;100.00;101313.44;4967985;28;20424;-64
2022/05/30 05:16:21;;;;;;;14.68;8.65;;;;;;;7.76;100.00;101310.28;4967975;28;20482;-64
2022/05/30 05:18:46;;;;;;;14.65;7.38;;;;;;;7.84;100.00;101307.22;4967400;28;20054;-64
2022/05/30 05:21:27;;;;;;;14.02;8.15;;;;;;;7.91;100.00;101307.59;4968349;28;20078;-64
2022/05/30 05:23:53;;;;;;;10.45;7.30;;;;;;;8.02;100.00;101312.41;4968397;28;20188;-64
2022/05/30 05:26:19;;;;;;;14.57;7.95;;;;;;;8.11;100.00;101312.84;4968268;28;20035;-64
2022/05/30 05:28:46;;;;;;;11.93;8.02;;;;;;;8.24;100.00;101316.94;4967596;28;20205;-64
2022/05/30 05:31:24;;;;;;;12.93;8.10;;;;;;;8.36;100.00;101314.09;4967824;28;20057;-64
2022/05/30 05:33:51;;;;;;;10.38;7.18;;;;;;;8.46;100.00;101314.50;4968953;28;20034;-64
2022/05/30 05:36:21;;;;;;;9.13;6.97;;;;;;;8.50;100.00;101316.44;4963506;28;20084;-64
2022/05/30 05:38:46;;;;;;;11.13;7.35;;;;;;;8.59;100.00;101314.34;4954527;28;20476;-64
2022/05/30 05:41:12;;;;;;;15.00;7.57;;;;;;;8.65;100.00;101319.78;4962717;28;20030;-65
2022/05/30 05:43:37;;;;;;;11.10;6.78;;;;;;;8.73;100.00;101324.44;4966844;28;20031;-64
2022/05/30 05:46:02;;;;;;;10.68;6.95;;;;;;;8.80;100.00;101323.91;4958327;28;20038;-64
2022/05/30 05:48:28;;;;;;;10.77;6.05;;;;;;;8.88;100.00;101325.19;4956024;28;20073;-64
2022/05/30 05:50:53;;;;;;;9.48;5.40;;;;;;;8.97;100.00;101323.81;4954199;28;20403;-64
2022/05/30 05:53:18;;;;;;;10.45;5.40;;;;;;;9.16;100.00;101324.66;4959291;28;20034;-65
2022/05/30 05:55:43;;;;;;;11.57;5.47;;;;;;;9.36;100.00;101329.03;4966463;28;20030;-64
2022/05/30 05:58:09;;;;;;;7.88;5.38;;;;;;;9.54;100.00;101333.25;4967646;28;20026;-65
2022/05/30 06:00:34;;;;;;;8.90;5.22;;;;;;;9.68;100.00;101330.38;4970009;28;20038;-65
2022/05/30 06:03:00;;;;;;;10.07;5.30;;;;;;;9.74;99.40;101335.84;4968954;28;20027;-65
2022/05/30 06:05:26;;;;;;;10.23;5.15;;;;;;;9.79;98.61;101334.34;4970626;28;20030;-65
2022/05/30 06:07:51;;;;;;;9.27;5.78;;;;;;;9.91;97.88;101327.91;4970983;28;20058;-65
2022/05/30 06:10:17;;;;;;;11.65;5.32;;;;;;;10.07;97.86;101325.13;4971026;28;20367;-65
2022/05/30 06:12:45;;;;;;;9.50;5.10;;;;;;;10.32;96.85;101331.38;4971549;28;20045;-65
2022/05/30 06:15:16;;;;;;;8.77;4.70;;;;;;;10.61;93.36;101327.31;4971390;28;20066;-64
2022/05/30 06:17:43;;;;;;;7.93;4.85;;;;;;;10.88;92.46;101326.63;4971050;28;20093;-65
2022/05/30 06:20:11;;;;;;;8.68;4.35;;;;;;;11.19;92.70;101332.09;4971601;28;20047;-65
2022/05/30 06:22:36;;;;;;;6.28;4.47;;;;;;;11.36;87.49;101335.31;4971966;28;20023;-65
2022/05/30 06:25:03;;;;;;;6.75;4.47;;;;;;;11.53;86.45;101342.00;4971358;28;20471;-65
2022/05/30 06:27:28;;;;;;;7.07;4.15;;;;;;;11.79;87.07;101327.28;4970493;28;20065;-64
2022/05/30 06:29:54;;;;;;;8.05;4.00;;;;;;;12.10;85.92;101333.56;4971472;28;20490;-65
2022/05/30 06:32:19;;;;;;;8.57;3.70;;;;;;;12.38;83.60;101334.47;4971261;28;20062;-65
2022/05/30 06:34:45;;;;;;;8.35;3.72;;;;;;;12.58;80.56;101329.91;4970987;28;20019;-65
2022/05/30 06:37:11;;;;;;;9.70;3.70;;;;;;;12.67;78.72;101331.91;4971590;28;20026;-65
2022/05/30 06:39:40;;;;;;;6.28;3.25;;;;;;;12.83;79.44;101330.69;4971226;28;20106;-65
2022/05/30 06:42:13;;;;;;;9.45;4.30;;;;;;;12.93;78.11;101336.16;4970961;28;20172;-65
2022/05/30 06:44:39;;;;;;;6.88;3.90;;;;;;;13.11;78.74;101335.84;4971081;28;20035;-65
2022/05/30 06:47:07;;;;;;;5.47;2.60;;;;;;;13.28;74.65;101332.81;4970836;28;20019;-65
2022/05/30 06:49:33;;;;;;;5.88;3.20;;;;;;;13.42;73.50;101326.28;4971337;28;20027;-65
2022/05/30 06:51:58;;;;;;;6.10;2.75;;;;;;;13.55;72.50;101330.16;4971220;28;20019;-65
2022/05/30 06:54:23;;;;;;;5.93;2.67;;;;;;;13.87;73.58;101337.06;4970588;28;20118;-65
2022/05/30 06:59:34;;;;;;;4.75;1.50;;;;;;;14.00;69.24;101346.09;4971033;28;20042;-65
2022/05/30 07:02:00;;;;;;;5.15;1.67;;;;;;;13.74;67.57;101335.88;4970797;28;20031;-65
2022/05/30 07:04:29;;;;;;;4.07;1.42;;;;;;;13.21;69.30;101331.78;4970884;28;20027;-65
2022/05/30 07:06:54;;;;;;;6.07;1.70;;;;;;;12.80;71.90;101342.69;4970319;28;20122;-65
2022/05/30 07:09:19;;;;;;;5.78;2.10;;;;;;;12.44;73.49;101344.19;4969476;28;20130;-65
2022/05/30 07:11:44;;;;;;;6.00;2.05;;;;;;;12.11;74.80;101346.59;4953409;28;20427;-65
2022/05/30 07:14:12;;;;;;;5.95;2.33;;;;;;;11.93;75.49;101352.03;4970630;28;20031;-65
2022/05/30 07:16:38;;;;;;;6.82;2.10;;;;;;;12.09;78.13;101349.94;4970835;28;20038;-65
2022/05/30 07:19:05;;;;;;;3.83;1.55;;;;;;;12.47;71.42;101339.97;4971048;28;20541;-65
2022/05/30 07:21:30;;;;;;;4.72;1.58;;;;;;;13.10;73.27;101339.25;4969609;28;20403;-65
2022/05/30 07:23:55;;;;;;;8.57;2.33;;;;;;;13.77;71.23;101345.47;4970524;28;20027;-65
2022/05/30 07:26:22;;;;;;;5.85;2.30;;;;;;;14.20;65.21;101342.22;4970728;28;20031;-65
2022/05/30 07:28:48;;;;;;;4.80;1.95;;;;;;;14.53;64.55;101347.38;4970308;28;20063;-65
2022/05/30 07:31:16;;;;;;;4.18;1.33;;;;;;;14.85;61.26;101348.13;4952130;28;20447;-65
2022/05/30 07:33:44;;;;;;;4.20;1.40;;;;;;;14.85;60.97;101345.50;4970804;28;20081;-65
2022/05/30 07:36:12;;;;;;;5.70;1.65;;;;;;;14.77;61.04;101347.91;4970943;28;20313;-65
2022/05/30 07:38:37;;;;;;;4.57;1.50;;;;;;;14.48;63.27;101348.13;4970411;28;20025;-65
2022/05/30 07:41:03;;;;;;;4.57;1.40;;;;;;;14.13;63.53;101346.41;4969810;28;20038;-65
2022/05/30 07:43:29;;;;;;;3.83;1.25;;;;;;;13.81;62.88;101355.16;4971451;28;20027;-65
2022/05/30 07:45:54;;;;;;;5.72;1.80;;;;;;;13.53;62.99;101344.84;4970912;28;20251;-65
2022/05/30 07:48:20;;;;;;;3.90;1.10;;;;;;;13.28;63.22;101343.22;4970760;28;20081;-65
2022/05/30 07:50:45;;;;;;;6.50;1.50;;;;;;;13.04;65.18;101333.88;4971492;28;20045;-65
2022/05/30 07:53:10;;;;;;;5.90;1.60;;;;;;;12.83;66.35;101335.88;4970833;28;20034;-65
2022/05/30 07:55:39;;;;;;;5.60;1.92;;;;;;;12.80;67.49;101338.41;4970773;28;20050;-65
2022/05/30 07:58:07;;;;;;;3.03;1.10;;;;;;;12.79;63.22;101334.00;4970636;28;20102;-65
2022/05/30 08:00:35;;;;;;;5.45;1.52;;;;;;;13.04;64.60;101333.88;4970067;28;20471;-65
2022/05/30 08:03:01;;;;;;;5.47;1.30;;;;;;;13.52;63.08;101323.94;4970660;28;20105;-65
2022/05/30 08:05:27;;;;;;;4.85;1.48;;;;;;;13.94;61.07;101332.91;4970523;28;20034;-65
2022/05/30 08:07:52;;;;;;;3.08;1.10;;;;;;;14.25;61.20;101324.97;4969875;28;20109;-65
2022/05/30 08:10:18;;;;;;;2.20;1.10;;;;;;;14.38;61.18;101327.03;4969536;28;20143;-65
2022/05/30 08:12:44;;;;;;;6.47;1.58;;;;;;;14.17;58.51;101336.06;4967928;28;20391;-65
2022/05/30 08:15:10;;;;;;;4.25;1.20;;;;;;;14.01;60.75;101336.56;4968261;28;20036;-65
2022/05/30 08:17:36;;;;;;;2.42;0.88;;;;;;;13.81;61.12;101339.53;4967732;28;20033;-65
2022/05/30 08:20:02;;;;;;;4.95;1.20;;;;;;;13.68;63.25;101333.97;4966769;28;20047;-65
2022/05/30 08:22:28;;;;;;;3.08;0.93;;;;;;;13.55;61.76;101337.06;4969384;28;20038;-65
2022/05/30 08:24:54;;;;;;;3.20;0.90;;;;;;;13.21;62.32;101343.06;4970030;28;20843;-66
2022/05/30 08:27:21;;;;;;;2.75;0.90;;;;;;;12.93;61.22;101341.38;4970778;28;20041;-65
2022/05/30 08:29:46;;;;;;;3.28;1.00;;;;;;;12.93;63.40;101344.81;4969777;28;20034;-65
2022/05/30 08:32:12;;;;;;;4.07;1.35;;;;;;;12.96;65.16;101342.34;4969691;28;20149;-65
2022/05/30 08:34:42;;;;;;;3.95;1.23;;;;;;;13.01;63.07;101342.47;4970092;28;20427;-65
2022/05/30 08:37:09;;;;;;;3.65;1.30;;;;;;;13.04;62.73;101339.09;4969438;28;20034;-65
2022/05/30 08:42:27;;;;;;;4.65;0.93;;;;;;;13.31;61.40;101343.34;4968962;28;20045;-65
2022/05/30 08:44:53;;;;;;;4.05;1.13;;;;;;;13.81;60.86;101347.34;4968619;28;20027;-65
2022/05/30 08:47:46;;;;;;;5.60;1.70;;;;;;;14.32;58.57;101350.34;4966683;28;20089;-65
2022/05/30 08:50:40;;;;;;;2.72;1.10;;;;;;;14.37;56.30;101353.06;4962758;28;20038;-65
2022/05/30 08:53:28;;;;;;;3.45;1.13;;;;;;;14.57;56.27;101347.47;4962855;28;20038;-65
2022/05/30 08:56:02;;;;;;;3.67;1.38;;;;;;;14.60;56.06;101342.31;4950749;28;20031;-65
2022/05/30 08:58:44;;;;;;;3.97;1.27;;;;;;;14.57;53.99;101347.47;4953925;28;20072;-65
2022/05/30 09:01:14;;;;;;;2.42;1.20;;;;;;;14.70;57.54;101348.59;4952244;28;20034;-65
2022/05/30 09:04:07;;;;;;;3.03;0.95;;;;;;;14.78;53.49;101357.50;4949965;28;20110;-65
2022/05/30 09:06:35;;;;;;;5.43;1.50;;;;;;;15.13;51.68;101346.97;4952088;28;20041;-65
2022/05/30 09:09:10;;;;;;;2.30;1.20;;;;;;;15.34;50.85;101353.47;4949347;28;20210;-66
2022/05/30 09:11:47;;;;;;;5.93;1.15;;;;;;;15.27;51.34;101354.25;4959156;28;20033;-65
2022/05/30 09:14:30;;;;;;;3.30;1.23;;;;;;;15.41;50.86;101354.50;4956275;28;20023;-65
2022/05/30 09:17:00;;;;;;;3.60;1.58;;;;;;;15.41;50.43;101351.00;4954288;28;20123;-65
2022/05/30 09:19:26;;;;;;;2.50;1.27;;;;;;;15.66;52.07;101352.38;4950617;28;20416;-66
2022/05/30 09:22:01;;;;;;;2.78;1.20;;;;;;;15.42;51.36;101350.16;4951973;28;20015;-65
2022/05/30 09:24:32;;;;;;;5.30;1.63;;;;;;;15.29;52.19;101355.13;4961692;28;20842;-66
2022/05/30 09:26:59;;;;;;;2.40;1.13;;;;;;;15.06;51.51;101355.53;4955635;28;20085;-65
2022/05/30 09:29:30;;;;;;;4.68;1.42;;;;;;;14.81;51.87;101347.16;4965839;28;20034;-66
2022/05/30 09:32:16;;;;;;;3.75;1.33;;;;;;;15.03;52.27;101347.66;4954262;28;20527;-65
2022/05/30 09:34:46;;;;;;;4.32;1.50;;;;;;;15.61;54.07;101341.81;4953297;28;20039;-66
2022/05/30 09:37:30;;;;;;;2.65;1.23;;;;;;;16.20;54.10;101346.38;4949211;28;20090;-66
2022/05/30 09:39:55;;;;;;;4.88;1.58;;;;;;;16.66;54.69;101337.47;4963548;28;20082;-66
2022/05/30 09:42:27;;;;;;;5.78;1.65;;;;;;;16.72;50.71;101341.94;4968722;28;20035;-65
2022/05/30 09:44:57;;;;;;;3.88;1.92;;;;;;;16.76;53.17;101343.75;4968748;28;20038;-66
2022/05/30 09:47:22;;;;;;;3.67;1.38;;;;;;;16.76;52.34;101342.00;4968347;28;20051;-66
2022/05/30 09:49:51;;;;;;;2.67;1.30;;;;;;;16.71;51.14;101348.91;4968288;28;20088;-66
2022/05/30 09:52:38;;;;;;;4.40;1.33;;;;;;;16.24;49.57;101353.44;4967554;28;20034;-66
2022/05/30 09:55:21;;;;;;;1.77;0.93;;;;;;;15.70;48.88;101348.94;4968126;28;20035;-66
2022/05/30 09:57:46;;;;;;;1.45;0.80;;;;;;;15.42;48.12;101355.38;4966188;28;20023;-66
2022/05/30 10:00:37;;;;;;;2.05;0.70;;;;;;;15.00;48.32;101361.50;4949058;28;20090;-66
2022/05/30 10:03:09;;;;;;;2.17;0.52;;;;;;;14.66;50.18;101358.09;4949914;28;20503;-66
2022/05/30 10:05:37;;;;;;;2.53;0.70;;;;;;;14.50;47.83;101352.50;4932140;28;20031;-66
2022/05/30 10:08:21;;;;;;;2.10;0.52;;;;;;;14.30;48.10;101349.44;4948280;28;20026;-66
2022/05/30 10:10:49;;;;;;;3.88;0.80;;;;;;;14.14;47.65;101351.66;4949120;28;20039;-66
2022/05/30 10:13:36;;;;;;;2.22;0.63;;;;;;;13.93;48.90;101360.69;4951615;28;20026;-66
2022/05/30 10:16:04;;;;;;;1.63;0.70;;;;;;;14.22;49.00;101350.97;4949122;28;20030;-66
2022/05/30 10:18:33;;;;;;;1.25;0.60;;;;;;;14.79;48.28;101348.81;4948609;28;20027;-66
2022/05/30 10:21:27;;;;;;;1.55;0.50;;;;;;;15.51;49.50;101350.34;4948261;28;20051;-66
2022/05/30 10:31:03;;;;;;;3.13;0.88;;;;;;;17.31;43.89;101339.22;4948297;28;20050;-66
2022/05/30 10:33:31;;;;;;;2.78;0.75;;;;;;;17.35;42.74;101336.69;4944547;28;20495;-66
2022/05/30 10:36:13;;;;;;;1.30;0.55;;;;;;;17.39;43.92;101342.84;4950610;28;20033;-66
2022/05/30 10:38:41;;;;;;;2.25;1.00;;;;;;;16.96;43.10;101354.50;4948680;28;20457;-66
2022/05/30 10:41:21;;;;;;;3.97;0.80;;;;;;;16.26;42.55;101351.69;4948509;28;20031;-66
2022/05/30 10:44:01;;;;;;;4.13;1.02;;;;;;;15.81;44.67;101357.00;4964511;28;20031;-66
2022/05/30 10:46:35;;;;;;;3.05;1.23;;;;;;;15.29;45.47;101365.56;4952727;28;20335;-66
2022/05/30 10:49:11;;;;;;;4.15;1.17;;;;;;;15.09;48.43;101363.41;4953283;28;20031;-66
2022/05/30 10:51:48;;;;;;;4.47;0.90;;;;;;;14.80;46.04;101371.47;4934961;28;20031;-66
2022/05/30 10:54:34;;;;;;;2.05;1.00;;;;;;;14.58;49.26;101368.34;4952931;28;20027;-66
2022/05/30 10:57:26;;;;;;;3.40;1.60;;;;;;;14.52;49.04;101365.59;4970788;28;20347;-65
2022/05/30 11:00:04;;;;;;;3.88;1.63;;;;;;;14.46;50.42;101360.25;4922445;28;20366;-66
2022/05/30 11:02:38;;;;;;;2.60;1.10;;;;;;;14.59;51.03;101362.28;4952547;28;20031;-65
2022/05/30 11:05:15;;;;;;;3.80;1.20;;;;;;;14.71;53.04;101361.72;4952236;28;20031;-65
2022/05/30 11:08:06;;;;;;;3.08;1.20;;;;;;;14.81;52.41;101362.81;4964913;28;20035;-66
2022/05/30 11:11:01;;;;;;;2.45;1.00;;;;;;;14.89;49.82;101363.84;4952154;28;20035;-66
2022/05/30 11:13:47;;;;;;;4.60;1.30;;;;;;;14.78;50.08;101360.13;4951240;28;20077;-66
2022/05/30 11:16:40;;;;;;;2.25;1.10;;;;;;;14.72;50.19;101357.34;4952219;28;20129;-66
2022/05/30 11:19:18;;;;;;;3.28;1.10;;;;;;;14.68;51.62;101366.81;4951841;28;20026;-65
2022/05/30 11:22:02;;;;;;;3.20;0.90;;;;;;;14.96;50.69;101362.28;4962582;28;20039;-66
2022/05/30 11:24:28;;;;;;;2.55;1.10;;;;;;;15.54;49.39;101360.84;4949746;28;20031;-66
2022/05/30 11:27:09;;;;;;;2.80;0.90;;;;;;;16.00;47.66;101354.75;4953607;28;20029;-66
2022/05/30 11:29:37;;;;;;;2.28;1.13;;;;;;;16.22;47.33;101355.13;4952062;28;20031;-66
2022/05/30 11:32:33;;;;;;;2.92;1.20;;;;;;;16.29;48.26;101354.38;4952336;28;20107;-66
2022/05/30 11:35:23;;;;;;;2.75;0.90;;;;;;;16.01;45.92;101340.81;4965915;28;20054;-66
2022/05/30 11:38:23;;;;;;;1.85;0.80;;;;;;;16.10;47.43;101349.69;4969980;28;20050;-66
2022/05/30 11:41:04;;;;;;;2.47;0.90;;;;;;;16.08;47.93;101349.69;4968718;28;20102;-66
2022/05/30 11:43:48;;;;;;;1.50;1.13;;;;;;;16.03;48.75;101354.81;4970188;28;20027;-66
2022/05/30 11:46:31;;;;;;;3.47;1.35;;;;;;;15.98;48.61;101359.03;4954635;28;20038;-66
2022/05/30 11:49:29;;;;;;;2.88;0.80;;;;;;;15.92;49.26;101346.75;4963147;28;20042;-64
2022/05/30 11:52:13;;;;;;;2.38;1.00;;;;;;;15.81;46.25;101351.78;4951617;28;20207;-64
2022/05/30 11:54:42;;;;;;;1.73;0.88;;;;;;;15.73;48.49;101350.75;4964587;28;20361;-64